Time;durP1;ratioP1;P1;durP2;ratioP2;P2;SDS_P1;SDS_P2;PMS_P1;PMS_P2;Temp;Humidity;BMP_temperature;BMP_pressure;BME280_temperature;BME280_humidity;BME280_pressure;Samples;Min_cycle;Max_cycle;Signal;HPM_P1;HPM_P2
2022/04/09 00:02:12;;;;;;;13.15;9.45;;;;;;;6.15;100.00;97483.28;5048695;28;20080;-83
2022/04/09 00:04:37;;;;;;;14.57;9.68;;;;;;;6.12;100.00;97488.66;5049366;28;20052;-84
2022/04/09 00:07:03;;;;;;;18.75;10.43;;;;;;;5.93;100.00;97471.72;5032127;28;20174;-84
2022/04/09 00:09:28;;;;;;;13.52;9.43;;;;;;;6.06;100.00;97500.19;5049569;28;20083;-84
2022/04/09 00:11:54;;;;;;;14.88;10.07;;;;;;;6.03;100.00;97497.81;5028814;28;20046;-83
2022/04/09 00:14:19;;;;;;;14.20;9.38;;;;;;;6.04;100.00;97488.31;5029224;28;20042;-83
2022/04/09 00:16:45;;;;;;;13.63;9.43;;;;;;;5.90;100.00;97461.56;5012497;28;20124;-83
2022/04/09 00:19:10;;;;;;;13.85;9.70;;;;;;;6.00;100.00;97477.34;5012368;28;20041;-84
2022/04/09 00:21:36;;;;;;;13.80;9.95;;;;;;;5.95;100.00;97461.28;5028952;28;20614;-84
2022/04/09 00:24:02;;;;;;;17.27;10.77;;;;;;;5.84;100.00;97455.94;5028711;28;20034;-84
2022/04/09 00:26:27;;;;;;;22.30;13.05;;;;;;;5.84;100.00;97454.16;5012387;28;20068;-84
2022/04/09 00:28:53;;;;;;;19.95;12.02;;;;;;;5.84;100.00;97461.09;5012183;28;20041;-84
2022/04/09 00:31:18;;;;;;;22.17;12.73;;;;;;;5.81;100.00;97450.94;5028992;28;20048;-83
2022/04/09 00:33:44;;;;;;;16.88;11.45;;;;;;;5.90;100.00;97455.53;5043359;28;20052;-83
2022/04/09 00:36:09;;;;;;;15.65;10.90;;;;;;;5.88;100.00;97462.56;5048860;28;20587;-83
2022/04/09 00:38:35;;;;;;;16.00;11.93;;;;;;;5.86;100.00;97464.44;5048862;28;20165;-83
2022/04/09 00:41:00;;;;;;;15.75;11.07;;;;;;;5.86;100.00;97465.25;5048576;28;20040;-83
2022/04/09 00:43:25;;;;;;;15.25;10.20;;;;;;;5.72;100.00;97442.84;5079536;28;20487;-83
2022/04/09 00:45:51;;;;;;;13.95;9.52;;;;;;;5.84;100.00;97459.34;5073065;28;20087;-83
2022/04/09 00:48:20;;;;;;;13.95;9.68;;;;;;;5.85;100.00;97458.41;5091427;28;20033;-83
2022/04/09 00:50:47;;;;;;;15.50;9.90;;;;;;;5.75;100.00;97436.66;5073200;28;20142;-83
2022/04/09 00:53:15;;;;;;;15.13;8.68;;;;;;;5.87;100.00;97458.34;5073041;28;20126;-83
2022/04/09 00:58:28;;;;;;;14.70;10.48;;;;;;;5.68;100.00;97451.72;5094726;28;20043;-83
2022/04/09 01:00:53;;;;;;;14.57;10.00;;;;;;;5.83;100.00;97468.03;5076554;28;20081;-83
2022/04/09 01:03:19;;;;;;;16.45;10.35;;;;;;;5.87;100.00;97461.75;5094978;28;20028;-83
2022/04/09 01:05:46;;;;;;;15.20;9.95;;;;;;;5.82;100.00;97457.78;5076872;28;20028;-84
2022/04/09 01:08:12;;;;;;;16.30;10.02;;;;;;;5.86;100.00;97460.09;5076506;28;20024;-84
2022/04/09 01:10:38;;;;;;;15.73;10.07;;;;;;;5.91;100.00;97464.97;5094926;28;20456;-84
2022/04/09 01:13:04;;;;;;;14.57;9.70;;;;;;;5.90;100.00;97487.41;5094565;28;20016;-84
2022/04/09 01:15:29;;;;;;;13.27;9.90;;;;;;;5.93;100.00;97499.31;5076561;28;20440;-84
2022/04/09 01:17:55;;;;;;;13.50;9.55;;;;;;;5.83;100.00;97478.34;5094404;28;20099;-84
2022/04/09 01:20:22;;;;;;;14.20;10.20;;;;;;;5.93;100.00;97519.97;5094958;28;20383;-83
2022/04/09 01:22:49;;;;;;;11.95;9.18;;;;;;;5.93;100.00;97533.72;5094741;28;20110;-84
2022/04/09 01:25:14;;;;;;;15.65;10.18;;;;;;;5.91;100.00;97532.13;5076262;28;20028;-83
2022/04/09 01:27:40;;;;;;;13.13;9.15;;;;;;;5.91;100.00;97537.31;5076493;28;20031;-83
2022/04/09 01:30:07;;;;;;;11.10;7.53;;;;;;;5.85;100.00;97532.50;5076170;28;20035;-83
2022/04/09 01:32:33;;;;;;;10.35;6.50;;;;;;;5.80;100.00;97532.78;5076184;28;20028;-84
2022/04/09 01:35:03;;;;;;;10.10;5.80;;;;;;;5.78;100.00;97541.56;5094647;28;20509;-83
2022/04/09 01:37:29;;;;;;;8.00;6.30;;;;;;;5.80;100.00;97560.38;5076302;28;20039;-83
2022/04/09 01:39:54;;;;;;;7.25;5.40;;;;;;;5.70;100.00;97554.94;5076063;28;20024;-83
2022/04/09 01:42:21;;;;;;;8.85;5.75;;;;;;;5.78;100.00;97568.22;5094298;28;20024;-83
2022/04/09 01:44:47;;;;;;;7.75;5.55;;;;;;;5.71;100.00;97570.34;5094236;28;20479;-83
2022/04/09 01:47:13;;;;;;;9.40;6.40;;;;;;;5.65;100.00;97565.56;5094139;28;20069;-83
2022/04/09 01:49:38;;;;;;;8.38;5.72;;;;;;;5.65;100.00;97567.31;5075847;28;20048;-83
2022/04/09 01:52:04;;;;;;;7.78;6.15;;;;;;;5.64;100.00;97575.94;5075739;28;20044;-83
2022/04/09 01:54:29;;;;;;;8.27;5.95;;;;;;;5.51;100.00;97565.53;5075947;28;20032;-81
2022/04/09 01:56:55;;;;;;;11.60;6.00;;;;;;;5.55;100.00;97579.09;5075737;28;20028;-82
2022/04/09 01:59:20;;;;;;;7.05;5.97;;;;;;;5.53;100.00;97586.94;5075755;28;20027;-82
2022/04/09 02:01:47;;;;;;;8.40;6.40;;;;;;;5.51;100.00;97588.75;5075720;28;20028;-82
2022/04/09 02:04:14;;;;;;;8.57;6.07;;;;;;;5.41;100.00;97579.91;5093736;28;20112;-82
2022/04/09 02:06:42;;;;;;;6.18;5.55;;;;;;;5.39;100.00;97590.31;5093850;28;20047;-82
2022/04/09 02:09:11;;;;;;;13.40;6.25;;;;;;;5.32;100.00;97593.34;5074987;28;20114;-82
2022/04/09 02:11:40;;;;;;;9.02;6.07;;;;;;;5.27;100.00;97593.63;5075466;28;20020;-82
2022/04/09 02:14:08;;;;;;;9.32;6.47;;;;;;;5.17;100.00;97593.31;5075132;28;20671;-82
2022/04/09 02:16:34;;;;;;;8.80;5.85;;;;;;;5.06;100.00;97574.22;5075601;28;20031;-82
2022/04/09 02:18:59;;;;;;;10.13;6.68;;;;;;;5.01;100.00;97584.78;5093434;28;20020;-83
2022/04/09 02:21:25;;;;;;;9.57;7.18;;;;;;;5.05;100.00;97606.09;5093613;28;20024;-83
2022/04/09 02:23:50;;;;;;;10.60;7.50;;;;;;;5.03;100.00;97602.78;5075338;28;20056;-83
2022/04/09 02:26:16;;;;;;;9.35;6.32;;;;;;;5.08;100.00;97609.31;5093197;28;20024;-83
2022/04/09 02:28:41;;;;;;;7.75;6.45;;;;;;;5.06;100.00;97618.91;5075025;28;20043;-84
2022/04/09 02:31:07;;;;;;;11.15;7.22;;;;;;;5.03;100.00;97608.75;5075102;28;20450;-84
2022/04/09 02:33:33;;;;;;;10.82;6.90;;;;;;;4.93;100.00;97599.84;5075107;28;20439;-84
2022/04/09 02:35:58;;;;;;;10.40;7.00;;;;;;;4.90;100.00;97598.31;5093055;28;20052;-85
2022/04/09 02:38:24;;;;;;;8.35;6.40;;;;;;;4.86;100.00;97601.97;5093256;28;20036;-85
2022/04/09 02:40:50;;;;;;;9.80;6.85;;;;;;;4.97;100.00;97620.28;5074967;28;20024;-84
2022/04/09 02:43:16;;;;;;;8.65;6.72;;;;;;;4.91;100.00;97606.88;5074699;28;20387;-84
2022/04/09 02:45:41;;;;;;;8.73;6.68;;;;;;;4.99;100.00;97630.50;5093140;28;20028;-85
2022/04/09 02:48:07;;;;;;;8.60;6.88;;;;;;;4.95;100.00;97632.41;5074687;28;20070;-84
2022/04/09 02:50:32;;;;;;;10.13;6.25;;;;;;;4.92;100.00;97636.91;5092982;28;20036;-84
2022/04/09 02:52:58;;;;;;;9.45;6.78;;;;;;;4.86;100.00;97632.94;5050065;28;20067;-84
2022/04/09 02:55:23;;;;;;;12.63;7.75;;;;;;;4.89;100.00;97645.66;5033183;28;20041;-84
2022/04/09 02:57:50;;;;;;;9.88;6.80;;;;;;;4.83;100.00;97661.47;5033321;28;20033;-83
2022/04/09 03:00:16;;;;;;;10.38;6.70;;;;;;;4.74;100.00;97659.38;5033141;28;20119;-83
2022/04/09 03:02:42;;;;;;;10.52;7.35;;;;;;;4.64;100.00;97643.59;5033209;28;20028;-83
2022/04/09 03:05:09;;;;;;;10.80;7.10;;;;;;;4.78;100.00;97671.19;5049728;28;20036;-83
2022/04/09 03:07:34;;;;;;;10.93;6.88;;;;;;;4.72;100.00;97664.66;5033108;28;20175;-83
2022/04/09 03:10:00;;;;;;;8.35;6.85;;;;;;;4.56;100.00;97650.91;5049616;28;20045;-83
2022/04/09 03:12:26;;;;;;;10.32;7.30;;;;;;;4.53;100.00;97651.06;5049755;28;20068;-82
2022/04/09 03:14:51;;;;;;;9.27;6.65;;;;;;;4.66;100.00;97674.44;5033113;28;20029;-83
2022/04/09 03:17:17;;;;;;;11.10;6.80;;;;;;;4.55;100.00;97653.56;5032838;28;20511;-82
2022/04/09 03:19:42;;;;;;;8.70;6.85;;;;;;;4.63;100.00;97674.59;5032370;28;20037;-83
2022/04/09 03:22:08;;;;;;;9.57;6.90;;;;;;;4.57;100.00;97662.06;5049575;28;20587;-82
2022/04/09 03:24:33;;;;;;;9.98;6.97;;;;;;;4.53;100.00;97661.38;5081408;28;20043;-82
2022/04/09 03:26:58;;;;;;;9.88;7.10;;;;;;;4.60;100.00;97674.78;5074067;28;20101;-82
2022/04/09 03:29:24;;;;;;;9.18;7.30;;;;;;;4.59;100.00;97676.50;5074114;28;20152;-83
2022/04/09 03:31:49;;;;;;;9.73;6.28;;;;;;;4.62;100.00;97696.97;5074103;28;20601;-83
2022/04/09 03:34:15;;;;;;;10.05;7.10;;;;;;;4.54;100.00;97686.25;5073875;28;20032;-83
2022/04/09 03:36:42;;;;;;;10.07;6.78;;;;;;;4.55;100.00;97687.06;5092157;28;20024;-83
2022/04/09 03:39:08;;;;;;;8.52;6.55;;;;;;;4.68;100.00;97709.56;5073645;28;20139;-83
2022/04/09 03:41:33;;;;;;;9.30;7.07;;;;;;;4.65;100.00;97707.13;5073837;28;20035;-82
2022/04/09 03:43:59;;;;;;;10.23;7.20;;;;;;;4.62;100.00;97711.63;5074021;28;20032;-83
2022/04/09 03:46:24;;;;;;;8.70;7.13;;;;;;;4.68;100.00;97711.31;5073837;28;20421;-83
2022/04/09 03:48:50;;;;;;;10.30;6.53;;;;;;;4.71;100.00;97718.88;5068905;28;20411;-83
2022/04/09 03:51:15;;;;;;;8.30;6.53;;;;;;;4.71;100.00;97722.28;5069109;28;20071;-84
2022/04/09 03:53:40;;;;;;;8.98;6.57;;;;;;;4.73;100.00;97723.03;5052389;28;20040;-82
2022/04/09 03:56:06;;;;;;;7.55;6.07;;;;;;;4.72;100.00;97726.53;5052228;28;20066;-83
2022/04/09 03:58:31;;;;;;;8.45;6.55;;;;;;;4.73;100.00;97727.38;5069303;28;20045;-83
2022/04/09 04:00:57;;;;;;;7.60;6.78;;;;;;;4.69;100.00;97718.94;5052455;28;20024;-83
2022/04/09 04:03:25;;;;;;;10.02;7.65;;;;;;;4.74;100.00;97732.44;5052120;28;20948;-84
2022/04/09 04:05:50;;;;;;;7.30;6.50;;;;;;;4.74;100.00;97735.00;5052305;28;20085;-84
2022/04/09 04:08:16;;;;;;;8.45;7.55;;;;;;;4.74;100.00;97747.91;5068878;28;20042;-83
2022/04/09 04:10:41;;;;;;;9.45;7.30;;;;;;;4.69;100.00;97733.59;5069056;28;20395;-83
2022/04/09 04:13:07;;;;;;;8.15;7.28;;;;;;;4.70;100.00;97743.81;5068953;28;20043;-83
2022/04/09 04:15:34;;;;;;;8.73;7.82;;;;;;;4.65;100.00;97735.50;5069098;28;20079;-83
2022/04/09 04:17:59;;;;;;;9.73;6.88;;;;;;;4.62;100.00;97733.06;5069058;28;20119;-84
2022/04/09 04:20:25;;;;;;;9.57;7.30;;;;;;;4.66;100.00;97746.66;5067812;28;20178;-83
2022/04/09 04:22:54;;;;;;;9.27;7.60;;;;;;;4.62;100.00;97743.41;5073428;28;20044;-83
2022/04/09 04:25:19;;;;;;;9.25;8.07;;;;;;;4.64;100.00;97743.34;5073140;28;20028;-83
2022/04/09 04:27:47;;;;;;;9.40;7.45;;;;;;;4.70;100.00;97767.03;5073390;28;20039;-83
2022/04/09 04:30:12;;;;;;;11.38;7.25;;;;;;;4.67;100.00;97758.63;5073383;28;20035;-83
2022/04/09 04:32:38;;;;;;;8.15;6.65;;;;;;;4.66;100.00;97755.22;5077138;28;20483;-83
2022/04/09 04:35:04;;;;;;;10.23;7.75;;;;;;;4.76;100.00;97765.84;5077475;28;20024;-83
2022/04/09 04:37:41;;;;;;;9.80;7.18;;;;;;;4.80;100.00;97777.69;5077150;28;20035;-83
2022/04/09 04:40:07;;;;;;;10.65;7.35;;;;;;;4.83;100.00;97780.09;5095177;28;20392;-82
2022/04/09 04:42:33;;;;;;;11.63;7.90;;;;;;;4.76;100.00;97773.59;5077409;28;20394;-83
2022/04/09 04:44:59;;;;;;;10.30;8.15;;;;;;;4.83;100.00;97782.69;5077267;28;20024;-83
2022/04/09 04:47:24;;;;;;;10.10;8.55;;;;;;;4.85;100.00;97780.03;5095197;28;20035;-83
2022/04/09 04:49:50;;;;;;;9.55;7.97;;;;;;;4.83;100.00;97772.38;5032213;28;20084;-83
2022/04/09 04:52:15;;;;;;;11.48;8.38;;;;;;;4.93;100.00;97785.59;5032194;28;20037;-82
2022/04/09 04:54:41;;;;;;;10.13;8.10;;;;;;;4.85;100.00;97772.31;5032731;28;20460;-82
2022/04/09 04:57:06;;;;;;;9.80;8.00;;;;;;;4.96;100.00;97788.84;5032410;28;20643;-82
2022/04/09 04:59:32;;;;;;;8.90;7.40;;;;;;;4.97;100.00;97784.50;5015868;28;20083;-82
2022/04/09 05:01:57;;;;;;;8.95;7.15;;;;;;;4.98;100.00;97788.78;5015804;28;20037;-83
2022/04/09 05:04:25;;;;;;;9.68;7.43;;;;;;;4.87;100.00;97771.28;5031973;28;20033;-83
2022/04/09 05:06:51;;;;;;;12.18;7.90;;;;;;;4.93;100.00;97785.59;5032284;28;20033;-83
2022/04/09 05:09:17;;;;;;;12.85;8.60;;;;;;;4.90;100.00;97794.34;5032086;28;20049;-82
2022/04/09 05:11:43;;;;;;;14.77;8.85;;;;;;;5.00;100.00;97810.16;5032314;28;20436;-83
2022/04/09 05:14:08;;;;;;;14.43;9.00;;;;;;;5.05;100.00;97825.41;5032240;28;20156;-83
2022/04/09 05:16:34;;;;;;;17.27;9.75;;;;;;;4.89;100.00;97805.59;5032451;28;20040;-83
2022/04/09 05:18:59;;;;;;;14.27;9.13;;;;;;;5.00;100.00;97834.22;5032036;28;20065;-82
2022/04/09 05:21:25;;;;;;;10.10;8.40;;;;;;;4.96;100.00;97835.28;5031716;28;20396;-83
2022/04/09 05:23:50;;;;;;;12.05;7.85;;;;;;;4.97;100.00;97844.72;5015327;28;20671;-82
2022/04/09 05:26:16;;;;;;;11.88;8.27;;;;;;;4.87;100.00;97824.63;5036661;28;20072;-84
2022/04/09 05:28:41;;;;;;;12.35;8.38;;;;;;;4.96;100.00;97824.97;5076457;28;20020;-84
2022/04/09 05:31:09;;;;;;;14.27;8.60;;;;;;;4.94;100.00;97825.97;5076429;28;20028;-84
2022/04/09 05:33:34;;;;;;;11.65;7.75;;;;;;;4.98;100.00;97825.72;5094488;28;20058;-84
2022/04/09 05:36:02;;;;;;;11.23;7.40;;;;;;;5.20;100.00;97851.22;5094431;28;20024;-84
2022/04/09 05:38:27;;;;;;;13.75;7.68;;;;;;;5.22;100.00;97839.09;5076215;28;20037;-85
2022/04/09 05:40:53;;;;;;;14.10;8.18;;;;;;;5.33;100.00;97850.56;5076305;28;20028;-83
2022/04/09 05:43:18;;;;;;;9.23;8.23;;;;;;;5.31;100.00;97854.97;5075058;28;20040;-83
2022/04/09 05:45:43;;;;;;;11.15;8.15;;;;;;;5.39;100.00;97858.78;5094314;28;20020;-83
2022/04/09 05:48:09;;;;;;;14.57;11.30;;;;;;;5.51;100.00;97863.28;5051330;28;20508;-83
2022/04/09 05:50:34;;;;;;;11.90;10.20;;;;;;;5.58;100.00;97862.97;5034233;28;20132;-84
2022/04/09 05:53:00;;;;;;;14.60;9.45;;;;;;;5.79;100.00;97882.44;5034656;28;20040;-83
2022/04/09 05:55:25;;;;;;;12.95;9.27;;;;;;;5.89;100.00;97882.75;5051059;28;20174;-83
2022/04/09 05:57:50;;;;;;;12.80;11.23;;;;;;;5.96;100.00;97891.88;5051469;28;20068;-83
2022/04/09 06:00:16;;;;;;;9.43;8.10;;;;;;;5.90;100.00;97887.00;5034591;28;20033;-79
2022/04/09 06:02:42;;;;;;;13.38;9.75;;;;;;;5.96;100.00;97903.03;5028356;28;20033;-79
2022/04/09 06:05:08;;;;;;;12.38;9.02;;;;;;;5.96;100.00;97913.38;5034424;28;20516;-80
2022/04/09 06:07:34;;;;;;;13.68;9.68;;;;;;;6.00;100.00;97920.03;5030626;28;20041;-79
2022/04/09 06:10:03;;;;;;;13.45;11.18;;;;;;;6.08;100.00;97914.47;5014546;28;20049;-80
2022/04/09 06:12:29;;;;;;;10.80;7.90;;;;;;;6.25;100.00;97921.25;5030771;28;20033;-79
2022/04/09 06:14:54;;;;;;;10.40;8.48;;;;;;;6.43;100.00;97906.44;5014476;28;20038;-79
2022/04/09 06:17:19;;;;;;;9.70;7.22;;;;;;;6.73;100.00;97938.28;5030835;28;20116;-80
2022/04/09 06:19:46;;;;;;;10.35;7.57;;;;;;;6.74;100.00;97929.63;5030968;28;20045;-83
2022/04/09 06:22:12;;;;;;;12.55;7.93;;;;;;;6.72;100.00;97902.16;5030836;28;20037;-84
2022/04/09 06:24:37;;;;;;;10.88;7.30;;;;;;;7.11;100.00;97931.78;5014349;28;20173;-84
2022/04/09 06:27:03;;;;;;;10.85;6.85;;;;;;;7.30;100.00;97937.50;5030798;28;20034;-84
2022/04/09 06:29:28;;;;;;;18.38;9.63;;;;;;;7.33;100.00;97931.31;5013861;28;20048;-85
2022/04/09 06:31:53;;;;;;;10.95;7.18;;;;;;;7.54;100.00;97947.28;5030620;28;20499;-84
2022/04/09 06:34:19;;;;;;;9.38;6.53;;;;;;;7.61;100.00;97933.88;5030337;28;20068;-85
2022/04/09 06:36:45;;;;;;;9.82;7.03;;;;;;;7.97;100.00;97922.13;5030659;28;20036;-85
2022/04/09 06:39:10;;;;;;;9.55;7.18;;;;;;;8.66;100.00;97943.63;5060390;28;20039;-84
2022/04/09 06:41:36;;;;;;;11.82;8.45;;;;;;;9.75;100.00;97963.03;5093259;28;20035;-83
2022/04/09 06:44:02;;;;;;;13.50;7.97;;;;;;;10.39;95.29;97952.44;5075123;28;20031;-84
2022/04/09 06:46:28;;;;;;;17.27;10.80;;;;;;;10.59;92.56;97974.41;5074792;28;20437;-85
2022/04/09 06:48:53;;;;;;;10.07;8.00;;;;;;;10.88;91.72;97978.28;5074654;28;20377;-84
2022/04/09 06:51:19;;;;;;;11.18;6.60;;;;;;;11.78;87.89;97973.16;5074575;28;20035;-84
2022/04/09 06:53:44;;;;;;;8.82;6.22;;;;;;;12.47;84.09;97991.19;5074742;28;20039;-85
2022/04/09 06:56:10;;;;;;;13.20;6.60;;;;;;;12.28;82.02;97994.47;5074230;28;20439;-86
2022/04/09 06:58:35;;;;;;;10.80;5.55;;;;;;;11.82;81.80;98008.50;5092791;28;20024;-85
2022/04/09 07:01:02;;;;;;;7.55;5.72;;;;;;;11.25;82.43;98014.63;5074712;28;20024;-85
2022/04/09 07:03:27;;;;;;;11.73;5.70;;;;;;;10.94;84.07;98026.50;5074388;28;20028;-85
2022/04/09 07:05:53;;;;;;;11.63;6.07;;;;;;;11.10;84.55;98029.63;5049891;28;20417;-85
2022/04/09 07:08:19;;;;;;;10.88;5.60;;;;;;;11.67;83.08;98030.53;5049692;28;20120;-83
2022/04/09 07:10:45;;;;;;;8.82;4.88;;;;;;;11.46;82.40;98044.28;5050029;28;20033;-83
2022/04/09 07:13:10;;;;;;;7.60;4.88;;;;;;;11.03;82.53;98048.41;5033320;28;20032;-83
2022/04/09 07:15:35;;;;;;;10.23;5.25;;;;;;;10.51;84.75;98050.44;5032966;28;20408;-83
2022/04/09 07:18:01;;;;;;;10.55;5.07;;;;;;;10.41;86.90;98072.88;5033226;28;20127;-83
2022/04/09 07:20:27;;;;;;;12.40;6.30;;;;;;;10.14;84.96;98068.63;5032910;28;20029;-83
2022/04/09 07:22:52;;;;;;;54.20;26.88;;;;;;;9.91;84.60;98087.63;5049799;28;20056;-83
2022/04/09 07:25:17;;;;;;;38.90;18.52;;;;;;;9.57;84.79;98083.88;5032942;28;20128;-83
2022/04/09 07:27:44;;;;;;;30.05;14.98;;;;;;;9.44;85.86;98092.50;5033065;28;20028;-83
2022/04/09 07:30:12;;;;;;;22.05;12.65;;;;;;;9.33;86.57;98076.78;5010006;28;20033;-83
2022/04/09 07:32:39;;;;;;;35.60;18.83;;;;;;;9.74;86.47;98104.38;5009786;28;20497;-83
2022/04/09 07:35:05;;;;;;;20.15;10.77;;;;;;;10.09;84.94;98117.56;5010117;28;20037;-83
2022/04/09 07:37:31;;;;;;;25.08;13.35;;;;;;;10.56;84.71;98123.00;5023235;28;20072;-83
2022/04/09 07:39:57;;;;;;;13.73;8.20;;;;;;;11.87;81.03;98128.16;5049668;28;20117;-84
2022/04/09 07:42:22;;;;;;;27.67;14.88;;;;;;;12.28;77.02;98111.94;5032492;28;20108;-84
2022/04/09 07:44:48;;;;;;;15.75;9.40;;;;;;;12.54;74.31;98127.31;5049422;28;20045;-84
2022/04/09 07:47:14;;;;;;;16.38;8.65;;;;;;;15.41;69.70;98147.50;5049484;28;20362;-83
2022/04/09 07:49:44;;;;;;;19.35;12.35;;;;;;;14.88;64.20;98142.66;5032249;28;20064;-89
2022/04/09 07:52:09;;;;;;;19.50;11.13;;;;;;;15.01;63.66;98147.63;5051101;28;20051;-91
2022/04/09 07:54:34;;;;;;;10.38;5.90;;;;;;;17.18;57.82;98140.50;5050868;28;20508;-90
2022/04/09 07:57:01;;;;;;;11.30;6.18;;;;;;;19.63;46.57;98144.38;5051582;28;20035;-90
2022/04/09 07:59:26;;;;;;;17.15;9.63;;;;;;;19.01;45.17;98157.16;5049413;28;20444;-90
2022/04/09 08:01:52;;;;;;;13.20;7.18;;;;;;;18.14;46.02;98151.16;5069954;28;20036;-88
2022/04/09 08:04:17;;;;;;;7.68;4.28;;;;;;;16.32;48.33;98165.47;5074681;28;20080;-89
2022/04/09 08:06:43;;;;;;;8.13;4.53;;;;;;;14.37;52.95;98184.66;5075112;28;20035;-91
2022/04/09 08:09:08;;;;;;;10.20;5.30;;;;;;;12.69;57.22;98175.75;5074481;28;20024;-88
2022/04/09 08:11:33;;;;;;;10.27;4.68;;;;;;;11.79;61.70;98188.69;5091872;28;20712;-88
2022/04/09 08:13:59;;;;;;;9.45;4.30;;;;;;;11.46;64.94;98192.03;5091865;28;20043;-89
2022/04/09 08:16:25;;;;;;;8.07;4.20;;;;;;;11.46;65.06;98195.50;5073582;28;20486;-87
2022/04/09 08:18:51;;;;;;;7.10;4.15;;;;;;;11.63;65.21;98190.78;5073605;28;20107;-86
2022/04/09 08:21:18;;;;;;;8.25;3.92;;;;;;;12.06;64.96;98209.31;5073808;28;20471;-87
2022/04/09 08:23:43;;;;;;;7.93;3.50;;;;;;;11.97;62.96;98205.63;5091834;28;20493;-88
2022/04/09 08:26:09;;;;;;;7.78;3.80;;;;;;;11.68;63.44;98212.16;5074003;28;20058;-89
2022/04/09 08:28:36;;;;;;;6.00;3.42;;;;;;;11.27;64.33;98218.63;5073681;28;20039;-88
2022/04/09 08:31:02;;;;;;;13.38;4.18;;;;;;;10.74;65.35;98231.06;5073583;28;20463;-88
2022/04/09 08:33:27;;;;;;;5.47;3.58;;;;;;;10.31;65.25;98223.63;5073709;28;20103;-88
2022/04/09 08:35:53;;;;;;;6.47;4.13;;;;;;;10.16;66.84;98245.47;5091827;28;20016;-87
2022/04/09 08:38:19;;;;;;;5.03;3.40;;;;;;;10.05;67.27;98233.16;5073808;28;20031;-86
2022/04/09 08:40:47;;;;;;;6.82;3.15;;;;;;;10.22;65.36;98245.03;5091787;28;20024;-89
2022/04/09 08:43:33;;;;;;;7.07;2.85;;;;;;;10.17;63.00;98242.75;5048726;28;20044;-87
2022/04/09 08:46:02;;;;;;;6.90;2.90;;;;;;;10.22;62.80;98250.25;5030607;28;20076;-92
2022/04/09 08:48:28;;;;;;;4.82;2.78;;;;;;;10.22;61.24;98252.84;5029121;28;20041;-93
2022/04/09 08:50:54;;;;;;;5.57;2.90;;;;;;;10.24;61.47;98259.66;5048503;28;20134;-91
2022/04/09 08:53:21;;;;;;;7.55;2.83;;;;;;;10.33;60.21;98258.19;5035606;28;20037;-91
2022/04/09 08:55:48;;;;;;;5.57;3.05;;;;;;;10.21;60.22;98238.16;5034340;28;20663;-91
2022/04/09 08:58:14;;;;;;;7.20;2.97;;;;;;;10.25;60.60;98252.66;5033910;28;20091;-84
2022/04/09 09:00:41;;;;;;;7.35;3.67;;;;;;;10.21;60.82;98262.41;5031868;28;20134;-84
2022/04/09 09:03:10;;;;;;;5.75;3.22;;;;;;;10.23;61.21;98264.91;5016793;28;20064;-85
2022/04/09 09:05:41;;;;;;;7.35;3.10;;;;;;;10.32;60.42;98271.28;5012411;28;20032;-86
2022/04/09 09:08:08;;;;;;;7.63;3.20;;;;;;;10.36;61.39;98273.56;5012528;28;20030;-88
2022/04/09 09:10:35;;;;;;;6.18;2.78;;;;;;;10.47;61.12;98272.88;5012030;28;20042;-88
2022/04/09 09:13:12;;;;;;;4.55;3.33;;;;;;;10.43;59.77;98251.41;5012208;28;20694;-88
2022/04/09 09:15:47;;;;;;;5.47;2.78;;;;;;;10.66;58.86;98267.22;5050896;28;20385;-83
2022/04/09 09:18:21;;;;;;;6.15;3.42;;;;;;;10.67;57.25;98276.72;5054398;28;20028;-86
2022/04/09 09:20:54;;;;;;;7.40;2.75;;;;;;;10.57;57.51;98296.50;5056460;28;20036;-87
2022/04/09 09:23:21;;;;;;;5.55;2.47;;;;;;;10.36;55.98;98289.19;5032621;28;20580;-83
2022/04/09 09:25:48;;;;;;;3.63;2.40;;;;;;;10.22;56.18;98294.47;5015190;28;20056;-84
2022/04/09 09:28:21;;;;;;;4.28;3.00;;;;;;;10.54;57.34;98289.75;5031970;28;20187;-86
2022/04/09 09:30:48;;;;;;;4.85;2.70;;;;;;;10.83;56.37;98294.69;5015175;28;20033;-85
2022/04/09 09:33:14;;;;;;;4.05;2.58;;;;;;;10.89;55.38;98304.72;5031765;28;20037;-85
2022/04/09 09:35:49;;;;;;;7.70;2.75;;;;;;;10.85;54.04;98318.88;5014903;28;20044;-84
2022/04/09 09:38:24;;;;;;;6.43;2.45;;;;;;;10.53;53.26;98310.66;5015178;28;20057;-86
2022/04/09 09:40:50;;;;;;;6.93;3.22;;;;;;;10.32;54.93;98312.94;5015322;28;20550;-85
2022/04/09 09:43:21;;;;;;;4.72;2.65;;;;;;;10.28;54.44;98301.91;5015090;28;20048;-86
2022/04/09 09:45:48;;;;;;;5.43;2.75;;;;;;;10.32;53.12;98298.16;5013834;28;20041;-83
2022/04/09 09:48:25;;;;;;;4.75;2.75;;;;;;;10.44;54.00;98323.34;5030724;28;20061;-85
2022/04/09 09:50:53;;;;;;;4.03;2.60;;;;;;;10.56;55.47;98328.69;5013721;28;20053;-83
2022/04/09 09:53:29;;;;;;;7.85;2.42;;;;;;;10.69;56.36;98330.34;5017214;28;20396;-86
2022/04/09 09:55:59;;;;;;;5.60;2.60;;;;;;;10.82;56.06;98330.34;5073118;28;20032;-81
2022/04/09 09:58:26;;;;;;;5.03;2.67;;;;;;;10.88;55.34;98329.94;5055153;28;20063;-84
2022/04/09 10:00:51;;;;;;;5.72;2.42;;;;;;;10.99;55.50;98358.66;5056046;28;20605;-84
2022/04/09 10:03:19;;;;;;;5.82;2.72;;;;;;;10.96;54.47;98364.09;5056205;28;20127;-92
2022/04/09 10:05:47;;;;;;;6.25;2.92;;;;;;;10.79;54.30;98364.44;5057338;28;20047;-88
2022/04/09 10:08:12;;;;;;;8.05;3.55;;;;;;;10.74;54.75;98361.28;5055818;28;20036;-89
2022/04/09 10:10:43;;;;;;;6.90;2.95;;;;;;;10.68;53.77;98369.50;5051545;28;20048;-90
2022/04/09 10:13:10;;;;;;;4.72;2.75;;;;;;;10.64;52.97;98376.69;5034825;28;20044;-88
2022/04/09 10:15:39;;;;;;;3.92;2.60;;;;;;;10.82;53.40;98384.19;5034461;28;20047;-89
2022/04/09 10:18:07;;;;;;;4.40;2.78;;;;;;;10.99;53.40;98389.91;5035658;28;20481;-88
2022/04/09 10:20:34;;;;;;;6.18;3.00;;;;;;;10.91;51.83;98378.34;5043011;28;20040;-85
2022/04/09 10:23:03;;;;;;;5.85;2.95;;;;;;;10.67;51.74;98386.09;5054546;28;20028;-90
2022/04/09 10:25:32;;;;;;;5.63;2.53;;;;;;;10.54;51.12;98385.25;5055265;28;20127;-86
2022/04/09 10:28:03;;;;;;;4.07;2.58;;;;;;;10.40;50.66;98392.16;5070657;28;20040;-85
2022/04/09 10:30:37;;;;;;;5.03;2.85;;;;;;;10.54;51.56;98400.84;5054080;28;20048;-85
2022/04/09 10:33:02;;;;;;;6.25;2.83;;;;;;;10.66;52.48;98392.19;5070588;28;20039;-86
2022/04/09 10:35:39;;;;;;;4.80;2.92;;;;;;;10.72;50.94;98395.25;5070684;28;20427;-86
2022/04/09 10:38:07;;;;;;;6.22;3.15;;;;;;;10.94;50.33;98425.88;5053817;28;20028;-88
2022/04/09 10:40:56;;;;;;;6.20;2.90;;;;;;;10.86;48.85;98394.31;5071831;28;20170;-88
2022/04/09 10:43:25;;;;;;;7.68;3.65;;;;;;;11.19;48.65;98430.25;5075110;28;20039;-87
2022/04/09 10:46:02;;;;;;;8.95;5.25;;;;;;;11.13;47.10;98440.28;5074829;28;20024;-86
2022/04/09 10:48:33;;;;;;;5.75;2.90;;;;;;;10.89;46.88;98416.72;5074719;28;20028;-86
2022/04/09 10:50:59;;;;;;;6.95;3.20;;;;;;;10.84;47.75;98437.03;5072697;28;20403;-87
2022/04/09 10:53:30;;;;;;;7.10;3.38;;;;;;;10.68;49.54;98417.22;5071459;28;20070;-86
2022/04/09 10:56:15;;;;;;;;;;;;;;;10.85;49.25;98436.09;5071993;28;20028;-87
2022/04/09 10:59:16;;;;;;;5.95;3.08;;;;;;;10.89;49.39;98438.38;5071088;28;19915;-87
2022/04/09 11:01:51;;;;;;;7.00;3.75;;;;;;;10.98;49.58;98440.38;5071336;28;20058;-87
2022/04/09 11:04:43;;;;;;;8.98;3.97;;;;;;;10.77;50.51;98433.16;5071477;28;20043;-87
2022/04/09 11:07:19;;;;;;;8.70;4.53;;;;;;;10.65;50.33;98461.69;4974536;28;20096;-86
2022/04/09 11:09:58;;;;;;;5.40;3.13;;;;;;;10.45;51.22;98451.75;4974338;28;20034;-88
2022/04/09 11:12:38;;;;;;;10.15;3.38;;;;;;;10.40;51.75;98480.66;4974363;28;20038;-88
2022/04/09 11:15:08;;;;;;;7.03;4.15;;;;;;;10.24;54.34;98478.22;4974426;28;20490;-79
2022/04/09 11:17:34;;;;;;;11.73;4.03;;;;;;;10.28;56.20;98483.22;4990498;28;20042;-79
2022/04/09 11:20:04;;;;;;;7.47;3.63;;;;;;;10.26;56.92;98475.53;4974197;28;20066;-79
2022/04/09 11:22:38;;;;;;;10.37;7.10;;;;;;;10.26;57.99;98467.72;4990282;28;20109;-79
2022/04/09 11:25:05;;;;;;;10.05;6.25;;;;;;;10.42;58.60;98471.00;4990436;28;20122;-79
2022/04/09 11:27:32;;;;;;;7.20;4.18;;;;;;;10.47;57.80;98461.13;4990230;28;20034;-80
2022/04/09 11:29:58;;;;;;;14.13;7.22;;;;;;;10.62;58.29;98469.72;4974000;28;20486;-79
2022/04/09 11:32:25;;;;;;;8.90;4.50;;;;;;;10.61;58.22;98457.59;4990350;28;20036;-79